createdAt,value
2018-03-04T00:01:46.181Z,2.10
2018-03-04T00:04:17.908Z,2.03
2018-03-04T00:06:49.230Z,2.09
2018-03-04T00:09:18.454Z,2.19
2018-03-04T00:11:47.615Z,2.09
2018-03-04T00:14:16.964Z,2.10
2018-03-04T00:16:46.152Z,2.14
2018-03-04T00:19:15.368Z,2.01
2018-03-04T00:21:44.539Z,2.13
2018-03-04T00:24:14.851Z,2.27
2018-03-04T00:26:44.737Z,2.36
2018-03-04T00:29:17.859Z,2.40
2018-03-04T00:31:47.359Z,2.24
2018-03-04T00:34:16.933Z,2.22
2018-03-04T00:39:24.304Z,2.21
2018-03-04T00:42:17.013Z,2.10
2018-03-04T00:44:46.516Z,2.13
2018-03-04T00:47:16.663Z,2.10
2018-03-04T00:52:21.576Z,2.14
2018-03-04T00:54:59.291Z,2.15
2018-03-04T00:57:28.457Z,2.05
2018-03-04T00:59:58.655Z,2.18
2018-03-04T01:02:27.841Z,2.31
2018-03-04T01:07:35.187Z,2.33
2018-03-04T01:15:22.001Z,2.34
2018-03-04T01:17:54.607Z,2.05
2018-03-04T01:20:23.823Z,1.95
2018-03-04T01:22:53.087Z,1.73
2018-03-04T01:25:22.251Z,1.76
2018-03-04T01:30:32.588Z,1.59
2018-03-04T01:33:01.747Z,1.44
2018-03-04T01:35:30.934Z,1.45
2018-03-04T01:38:01.079Z,1.44
2018-03-04T01:40:30.252Z,1.21
2018-03-04T01:45:36.080Z,1.17
2018-03-04T01:48:10.995Z,1.04
2018-03-04T01:50:45.125Z,1.08
2018-03-04T01:53:31.784Z,0.93
2018-03-04T01:56:02.971Z,0.97
2018-03-04T01:58:32.267Z,1.04
2018-03-04T02:01:02.371Z,0.91
2018-03-04T02:03:31.590Z,0.95
2018-03-04T02:08:37.907Z,1.19
2018-03-04T02:11:10.037Z,1.05
2018-03-04T02:13:39.349Z,1.03
2018-03-04T02:18:46.669Z,1.00
2018-03-04T02:21:26.708Z,0.94
2018-03-04T02:23:55.873Z,1.07
2018-03-04T02:26:28.174Z,1.14
2018-03-04T02:28:57.398Z,1.15
2018-03-04T02:31:30.831Z,1.04
2018-03-04T02:41:46.739Z,0.70
2018-03-04T02:46:55.626Z,0.44
2018-03-04T02:49:25.800Z,0.42
2018-03-04T02:51:54.977Z,0.41
2018-03-04T02:57:15.179Z,0.36
2018-03-04T02:59:44.400Z,0.34
2018-03-04T03:04:53.158Z,0.43
2018-03-04T03:07:34.419Z,0.24
2018-03-04T03:12:39.246Z,0.30
2018-03-04T03:17:50.458Z,0.51
2018-03-04T03:20:19.647Z,0.47
2018-03-04T03:22:56.959Z,0.56
2018-03-04T03:25:32.042Z,0.60
2018-03-04T03:28:01.209Z,0.32
2018-03-04T03:30:51.899Z,0.44
2018-03-04T03:33:22.005Z,0.55
2018-03-04T03:36:00.901Z,0.74
2018-03-04T03:38:33.823Z,0.91
2018-03-04T03:41:03.002Z,0.87
2018-03-04T03:43:40.777Z,0.96
2018-03-04T03:46:09.965Z,1.04
2018-03-04T03:48:39.123Z,0.89
2018-03-04T03:51:08.327Z,0.96
2018-03-04T03:54:00.669Z,1.08
2018-03-04T03:59:09.623Z,1.12
2018-03-04T04:01:38.760Z,1.10
2018-03-04T04:04:07.976Z,1.21
2018-03-04T04:09:14.319Z,1.00
2018-03-04T04:11:43.546Z,0.78
2018-03-04T04:14:12.700Z,0.49
2018-03-04T04:16:50.275Z,0.33
2018-03-04T04:19:19.476Z,-0.01
2018-03-04T04:21:52.072Z,-0.05
2018-03-04T04:24:35.558Z,-0.09
2018-03-04T04:27:04.723Z,-0.36
2018-03-04T04:30:02.012Z,-0.39
2018-03-04T04:32:31.214Z,-0.39
2018-03-04T04:35:00.384Z,-0.59
2018-03-04T04:37:42.028Z,-0.44
2018-03-04T04:40:11.194Z,-0.44
2018-03-04T04:45:17.561Z,-0.68
2018-03-04T04:47:52.219Z,-0.80
2018-03-04T04:50:21.431Z,-1.08
2018-03-04T04:52:50.622Z,-1.13
2018-03-04T04:55:19.778Z,-1.09
2018-03-04T04:57:48.948Z,-1.32
2018-03-04T05:02:55.246Z,-1.32
2018-03-04T05:05:24.411Z,-1.44
2018-03-04T05:07:53.591Z,-1.38
2018-03-04T05:12:58.011Z,-1.46
2018-03-04T05:15:27.179Z,-1.48
2018-03-04T05:18:04.695Z,-1.47
2018-03-04T05:20:33.882Z,-1.70
2018-03-04T05:23:10.300Z,-1.67
2018-03-04T05:25:39.464Z,-1.76
2018-03-04T05:30:50.175Z,-1.64
2018-03-04T05:33:19.368Z,-1.76
2018-03-04T05:38:37.091Z,-1.73
2018-03-04T05:41:07.295Z,-1.87
2018-03-04T05:43:37.420Z,-1.85
2018-03-04T05:46:14.714Z,-1.83
2018-03-04T05:48:48.295Z,-1.99
2018-03-04T05:53:55.693Z,-2.12
2018-03-04T05:56:24.830Z,-2.17
2018-03-04T05:59:23.109Z,-2.08
2018-03-04T06:01:52.280Z,-2.04
2018-03-04T06:04:21.488Z,-2.22
2018-03-04T06:06:54.498Z,-2.24
2018-03-04T06:09:24.586Z,-2.28
2018-03-04T06:11:55.716Z,-2.21
2018-03-04T06:14:24.888Z,-2.43
2018-03-04T06:16:54.231Z,-2.50
2018-03-04T06:19:23.440Z,-2.52
2018-03-04T06:24:33.543Z,-2.51
2018-03-04T06:27:02.743Z,-2.54
2018-03-04T06:29:31.904Z,-2.36
2018-03-04T06:32:24.386Z,-2.19
2018-03-04T06:34:53.602Z,-2.28
2018-03-04T06:40:05.319Z,-1.90
2018-03-04T06:42:34.475Z,-1.91
2018-03-04T06:45:03.680Z,-1.83
2018-03-04T06:47:33.741Z,-1.57
2018-03-04T06:50:02.952Z,-1.58
2018-03-04T06:52:32.179Z,-1.41
2018-03-04T06:55:01.408Z,-1.21
2018-03-04T06:57:35.336Z,-1.05
2018-03-04T07:00:04.615Z,-1.02
2018-03-04T07:02:34.723Z,-0.83
2018-03-04T07:05:03.934Z,-0.57
2018-03-04T07:07:40.463Z,-0.52
2018-03-04T07:12:45.927Z,-0.61
2018-03-04T07:20:48.815Z,-0.58
2018-03-04T07:23:18.205Z,-0.59
2018-03-04T07:25:47.380Z,-0.42
2018-03-04T07:28:25.768Z,-0.21
2018-03-04T07:30:54.936Z,-0.26
2018-03-04T07:33:26.643Z,-0.14
2018-03-04T07:35:55.841Z,0.00
2018-03-04T07:38:24.976Z,0.07
2018-03-04T07:40:54.184Z,0.28
2018-03-04T07:43:25.503Z,0.34
2018-03-04T07:45:54.707Z,0.52
2018-03-04T07:48:24.845Z,0.61
2018-03-04T07:50:54.029Z,0.77
2018-03-04T07:53:25.432Z,0.85
2018-03-04T07:55:54.602Z,0.87
2018-03-04T07:58:23.820Z,1.04
2018-03-04T08:00:52.982Z,1.08
2018-03-04T08:03:22.233Z,1.03
2018-03-04T08:05:51.363Z,1.29
2018-03-04T08:08:20.527Z,1.27
2018-03-04T08:10:54.222Z,1.47
2018-03-04T08:13:23.432Z,1.58
2018-03-04T08:15:52.575Z,1.62
2018-03-04T08:18:22.736Z,1.72
2018-03-04T08:20:51.909Z,1.93
2018-03-04T08:23:22.040Z,1.92
2018-03-04T08:25:51.212Z,2.05
2018-03-04T08:28:35.561Z,2.17
2018-03-04T08:31:05.886Z,2.15
2018-03-04T08:33:35.053Z,2.22
2018-03-04T08:36:05.167Z,2.38
2018-03-04T08:38:34.344Z,2.37
2018-03-04T08:41:03.527Z,2.67
2018-03-04T08:43:40.359Z,2.73
2018-03-04T08:46:09.580Z,3.00
2018-03-04T08:48:39.192Z,3.01
2018-03-04T08:51:12.712Z,3.21
2018-03-04T08:56:22.854Z,3.33
2018-03-04T08:58:56.924Z,3.57
2018-03-04T09:01:31.199Z,3.85
2018-03-04T09:04:09.596Z,4.25
2018-03-04T09:19:49.038Z,12.92
2018-03-04T09:22:19.352Z,14.62
2018-03-04T09:24:49.651Z,15.40
2018-03-04T09:27:18.817Z,16.30
2018-03-04T09:29:49.999Z,16.96
2018-03-04T09:32:19.173Z,17.63
2018-03-04T09:37:23.560Z,18.95
2018-03-04T09:39:52.809Z,19.49
2018-03-04T09:42:21.977Z,19.81
2018-03-04T09:44:51.156Z,20.31
2018-03-04T09:47:20.332Z,21.29
2018-03-04T09:49:49.536Z,21.35
2018-03-04T09:52:19.620Z,21.52
2018-03-04T09:54:50.882Z,21.54
2018-03-04T09:57:20.043Z,21.38
2018-03-04T09:59:49.240Z,21.06
2018-03-04T10:02:18.407Z,21.98
2018-03-04T10:07:23.903Z,24.24
2018-03-04T10:09:53.115Z,25.04
2018-03-04T10:12:22.317Z,25.87
2018-03-04T10:14:51.492Z,25.90
2018-03-04T10:17:20.660Z,26.09
2018-03-04T10:19:49.834Z,26.16
2018-03-04T10:22:19.011Z,26.56
2018-03-04T10:24:48.218Z,26.08
2018-03-04T10:27:17.384Z,26.71
2018-03-04T10:29:46.532Z,27.24
2018-03-04T10:32:17.695Z,27.04
2018-03-04T10:34:46.849Z,27.56
2018-03-04T10:37:16.082Z,27.58
2018-03-04T10:39:46.148Z,26.72
2018-03-04T10:44:52.698Z,28.05
2018-03-04T10:47:21.899Z,28.59
2018-03-04T10:49:51.093Z,27.80
2018-03-04T10:52:20.304Z,28.08
2018-03-04T10:57:24.739Z,29.44
2018-03-04T11:02:35.831Z,29.98
2018-03-04T11:05:05.128Z,29.93
2018-03-04T11:07:34.320Z,30.22
2018-03-04T11:10:03.640Z,29.57
2018-03-04T11:12:32.798Z,30.36
2018-03-04T11:15:01.972Z,31.28
2018-03-04T11:17:31.200Z,30.78
2018-03-04T11:20:00.340Z,30.83
2018-03-04T11:22:30.057Z,30.67
2018-03-04T11:25:05.201Z,30.59
2018-03-04T11:30:09.645Z,32.05
2018-03-04T11:35:14.154Z,32.23
2018-03-04T11:37:43.398Z,31.29
2018-03-04T11:40:12.573Z,31.15
2018-03-04T11:42:41.760Z,30.95
2018-03-04T11:45:10.915Z,30.92
2018-03-04T11:47:40.084Z,31.48
2018-03-04T11:50:10.157Z,31.26
2018-03-04T11:52:39.315Z,31.90
2018-03-04T11:55:08.484Z,31.42
2018-03-04T11:57:37.717Z,31.93
2018-03-04T12:00:06.887Z,31.90
2018-03-04T12:02:36.108Z,31.48
2018-03-04T12:05:05.330Z,31.18
2018-03-04T12:10:13.433Z,32.71
2018-03-04T12:12:42.621Z,33.02
2018-03-04T12:15:11.786Z,32.07
2018-03-04T12:17:40.963Z,32.05
2018-03-04T12:20:12.120Z,33.36
2018-03-04T12:22:41.304Z,32.59
2018-03-04T12:25:12.128Z,31.72
2018-03-04T12:27:41.322Z,31.71
2018-03-04T12:30:10.519Z,31.65
2018-03-04T12:32:40.763Z,31.79
2018-03-04T12:35:09.963Z,32.00
2018-03-04T12:37:39.170Z,32.83
2018-03-04T12:40:08.620Z,32.28
2018-03-04T12:45:13.147Z,33.01
2018-03-04T12:47:42.459Z,32.90
2018-03-04T12:50:11.678Z,33.33
2018-03-04T12:52:40.823Z,33.59
2018-03-04T12:55:10.040Z,33.04
2018-03-04T12:57:39.268Z,32.09
2018-03-04T13:00:08.443Z,31.26
2018-03-04T13:02:37.664Z,31.12
2018-03-04T13:05:06.827Z,30.78
2018-03-04T13:07:46.303Z,31.03
2018-03-04T13:10:16.051Z,31.24
2018-03-04T13:12:45.272Z,31.45
2018-03-04T13:15:14.471Z,31.89
2018-03-04T13:17:44.538Z,31.65
2018-03-04T13:20:13.739Z,31.41
2018-03-04T13:22:42.895Z,32.52
2018-03-04T13:25:12.128Z,32.88
2018-03-04T13:27:41.310Z,32.17
2018-03-04T13:30:14.081Z,31.94
2018-03-04T13:32:43.283Z,31.08
2018-03-04T13:35:12.465Z,29.79
2018-03-04T13:37:41.624Z,31.25
2018-03-04T13:40:10.795Z,32.07
2018-03-04T13:42:39.957Z,31.48
2018-03-04T13:45:09.106Z,31.43
2018-03-04T13:47:38.512Z,30.45
2018-03-04T13:50:07.800Z,32.34
2018-03-04T13:52:37.010Z,32.30
2018-03-04T13:55:06.262Z,31.59
2018-03-04T13:57:35.411Z,31.02
2018-03-04T14:02:43.307Z,31.74
2018-03-04T14:07:47.805Z,30.66
2018-03-04T14:10:17.011Z,30.53
2018-03-04T14:12:46.175Z,28.67
2018-03-04T14:15:15.991Z,26.94
2018-03-04T14:17:45.144Z,28.73
2018-03-04T14:20:14.433Z,29.20
2018-03-04T14:22:43.626Z,30.10
2018-03-04T14:25:13.745Z,27.76
2018-03-04T14:27:42.910Z,26.84
2018-03-04T14:30:12.105Z,26.61
2018-03-04T14:32:45.599Z,24.77
2018-03-04T14:35:15.117Z,24.45
2018-03-04T14:37:44.343Z,25.32
2018-03-04T14:42:48.818Z,25.92
2018-03-04T14:45:18.575Z,26.25
2018-03-04T14:47:48.008Z,26.39
2018-03-04T14:50:17.371Z,26.61
2018-03-04T14:52:47.426Z,23.74
2018-03-04T14:55:16.713Z,25.96
2018-03-04T14:57:46.114Z,25.73
2018-03-04T15:00:15.562Z,23.42
2018-03-04T15:02:44.787Z,23.55
2018-03-04T15:05:15.244Z,24.41
2018-03-04T15:07:44.657Z,24.72
2018-03-04T15:10:14.282Z,24.98
2018-03-04T15:12:43.504Z,24.09
2018-03-04T15:15:12.666Z,25.17
2018-03-04T15:17:41.823Z,25.04
2018-03-04T15:22:46.484Z,24.32
2018-03-04T15:25:15.967Z,23.73
2018-03-04T15:27:45.299Z,24.81
2018-03-04T15:30:15.679Z,24.07
2018-03-04T15:32:45.172Z,22.96
2018-03-04T15:35:14.749Z,17.83
2018-03-04T15:37:44.887Z,18.10
2018-03-04T15:40:14.324Z,17.68
2018-03-04T15:42:43.517Z,16.29
2018-03-04T15:45:12.793Z,15.86
2018-03-04T15:47:42.883Z,15.16
2018-03-04T15:50:12.126Z,14.18
2018-03-04T15:52:41.284Z,13.77
2018-03-04T15:55:11.432Z,14.39
2018-03-04T15:57:40.663Z,14.02
2018-03-04T16:00:09.952Z,13.81
2018-03-04T16:02:39.132Z,13.70
2018-03-04T16:05:08.342Z,13.88
2018-03-04T16:07:37.544Z,13.60
2018-03-04T16:10:06.799Z,12.87
2018-03-04T16:12:35.968Z,12.34
2018-03-04T16:15:05.176Z,12.16
2018-03-04T16:17:34.387Z,12.13
2018-03-04T16:20:13.501Z,11.94
2018-03-04T16:22:42.656Z,11.31
2018-03-04T16:25:11.924Z,10.95
2018-03-04T16:27:41.183Z,10.65
2018-03-04T16:30:10.477Z,10.23
2018-03-04T16:32:39.685Z,9.75
2018-03-04T16:35:09.157Z,9.51
2018-03-04T16:37:38.371Z,9.24
2018-03-04T16:40:07.720Z,9.09
2018-03-04T16:42:36.981Z,8.95
2018-03-04T16:47:41.567Z,8.52
2018-03-04T16:50:12.605Z,8.02
2018-03-04T16:52:41.973Z,7.65
2018-03-04T16:55:16.517Z,7.51
2018-03-04T16:57:50.109Z,7.13
2018-03-04T17:00:19.323Z,6.92
2018-03-04T17:02:52.071Z,6.94
2018-03-04T17:05:21.294Z,6.70
2018-03-04T17:07:51.428Z,6.48
2018-03-04T17:10:20.835Z,6.29
2018-03-04T17:13:07.759Z,6.08
2018-03-04T17:15:37.105Z,5.93
2018-03-04T17:20:55.584Z,5.81
2018-03-04T17:23:35.731Z,5.64
2018-03-04T17:28:43.175Z,5.68
2018-03-04T17:31:14.585Z,5.59
2018-03-04T17:36:18.988Z,5.62
2018-03-04T17:41:24.355Z,5.61
2018-03-04T17:46:28.871Z,5.57
2018-03-04T17:49:08.940Z,5.50
2018-03-04T17:51:59.781Z,5.43
2018-03-04T17:57:12.311Z,5.50
2018-03-04T17:59:56.943Z,5.60
2018-03-04T18:02:26.303Z,5.47
2018-03-04T18:07:34.760Z,5.55
2018-03-04T18:12:50.925Z,5.60
2018-03-04T18:15:21.165Z,5.56
2018-03-04T18:20:25.706Z,5.52
2018-03-04T18:22:55.748Z,5.46
2018-03-04T18:25:25.278Z,5.31
2018-03-04T18:27:54.491Z,5.21
2018-03-04T18:30:23.703Z,5.10
2018-03-04T18:32:52.970Z,5.11
2018-03-04T18:35:22.733Z,5.05
2018-03-04T18:37:51.904Z,4.87
2018-03-04T18:40:22.045Z,4.71
2018-03-04T18:42:52.243Z,4.55
2018-03-04T18:45:22.366Z,4.53
2018-03-04T18:47:51.585Z,4.37
2018-03-04T18:50:21.861Z,4.24
2018-03-04T18:52:56.666Z,4.18
2018-03-04T18:55:26.844Z,4.01
2018-03-04T18:57:59.922Z,3.91
2018-03-04T19:00:29.132Z,3.82
2018-03-04T19:03:05.697Z,3.71
2018-03-04T19:08:11.032Z,3.70
2018-03-04T19:10:42.139Z,3.68
2018-03-04T19:13:11.376Z,3.69
2018-03-04T19:15:48.807Z,3.67
2018-03-04T19:18:18.136Z,3.69
2018-03-04T19:20:54.999Z,3.66
2018-03-04T19:23:24.317Z,3.44
2018-03-04T19:28:44.555Z,3.73
2018-03-04T19:31:13.789Z,3.65
2018-03-04T19:33:48.695Z,3.67
2018-03-04T19:36:17.965Z,3.70
2018-03-04T19:38:52.189Z,3.69
2018-03-04T19:41:21.470Z,3.70
2018-03-04T19:43:56.451Z,3.69
2018-03-04T19:46:26.566Z,3.67
2018-03-04T19:48:55.866Z,3.63
2018-03-04T19:51:33.876Z,3.71
2018-03-04T19:57:01.191Z,3.73
2018-03-04T19:59:30.801Z,3.76
2018-03-04T20:02:11.074Z,3.73
2018-03-04T20:04:40.289Z,3.68
2018-03-04T20:09:49.675Z,3.61
2018-03-04T20:12:19.230Z,3.45
2018-03-04T20:14:51.960Z,3.40
2018-03-04T20:17:21.158Z,3.33
2018-03-04T20:19:50.771Z,3.26
2018-03-04T20:22:20.089Z,3.29
2018-03-04T20:24:50.721Z,3.50
2018-03-04T20:27:20.726Z,3.46
2018-03-04T20:32:26.328Z,3.38
2018-03-04T20:35:00.506Z,3.29
2018-03-04T20:37:30.951Z,3.27
2018-03-04T20:40:01.847Z,3.27
2018-03-04T20:42:51.156Z,3.37
2018-03-04T20:45:20.503Z,3.25
2018-03-04T20:47:50.754Z,3.28
2018-03-04T20:50:24.067Z,3.06
2018-03-04T20:53:06.262Z,2.93
2018-03-04T20:55:35.443Z,2.96
2018-03-04T20:58:06.017Z,2.72
2018-03-04T21:00:35.559Z,2.71
2018-03-04T21:05:47.902Z,2.58
2018-03-04T21:08:17.151Z,2.47
2018-03-04T21:10:46.369Z,2.55
2018-03-04T21:13:15.507Z,2.42
2018-03-04T21:15:58.620Z,2.52
2018-03-04T21:18:30.166Z,2.66
2018-03-04T21:20:59.316Z,2.63
2018-03-04T21:23:28.494Z,2.71
2018-03-04T21:25:57.824Z,2.64
2018-03-04T21:28:27.160Z,2.69
2018-03-04T21:30:56.978Z,2.59
2018-03-04T21:33:26.178Z,2.58
2018-03-04T21:35:55.466Z,2.61
2018-03-04T21:38:24.944Z,2.45
2018-03-04T21:40:54.392Z,2.51
2018-03-04T21:43:23.601Z,2.44
2018-03-04T21:45:52.890Z,2.30
2018-03-04T21:48:22.200Z,2.35
2018-03-04T21:50:52.524Z,2.20
2018-03-04T21:53:21.823Z,2.18
2018-03-04T21:55:51.012Z,2.23
2018-03-04T21:58:20.175Z,2.04
2018-03-04T22:00:49.592Z,2.06
2018-03-04T22:03:18.872Z,1.94
2018-03-04T22:05:48.191Z,1.97
2018-03-04T22:08:17.385Z,2.03
2018-03-04T22:10:46.600Z,1.81
2018-03-04T22:13:15.992Z,1.83
2018-03-04T22:15:45.166Z,1.87
2018-03-04T22:18:14.330Z,1.79
2018-03-04T22:20:43.646Z,1.71
2018-03-04T22:23:13.183Z,1.75
2018-03-04T22:25:42.351Z,1.81
2018-03-04T22:28:11.766Z,1.60
2018-03-04T22:30:41.028Z,1.62
2018-03-04T22:33:10.200Z,1.50
2018-03-04T22:35:39.520Z,1.54
2018-03-04T22:38:08.709Z,1.58
2018-03-04T22:40:40.872Z,1.51
2018-03-04T22:43:10.069Z,1.49
2018-03-04T22:45:39.459Z,1.43
2018-03-04T22:48:08.650Z,1.26
2018-03-04T22:50:37.907Z,1.23
2018-03-04T22:53:07.393Z,1.24
2018-03-04T22:55:36.585Z,1.05
2018-03-04T22:58:05.960Z,1.09
2018-03-04T23:00:40.145Z,1.17
2018-03-04T23:05:50.172Z,1.00
2018-03-04T23:08:22.781Z,0.82
2018-03-04T23:10:55.227Z,0.88
2018-03-04T23:13:27.941Z,0.89
2018-03-04T23:16:02.472Z,0.72
2018-03-04T23:18:34.045Z,0.74
2018-03-04T23:21:06.802Z,0.57
2018-03-04T23:23:41.470Z,0.71
2018-03-04T23:26:13.547Z,0.89
2018-03-04T23:28:48.254Z,0.84
2018-03-04T23:31:21.869Z,0.99
2018-03-04T23:34:01.466Z,1.16
2018-03-04T23:36:32.445Z,1.11
2018-03-04T23:41:44.626Z,1.21
2018-03-04T23:44:19.440Z,1.05
2018-03-04T23:47:06.363Z,1.04
2018-03-04T23:49:40.478Z,0.80
2018-03-04T23:52:19.761Z,0.70
2018-03-04T23:54:57.668Z,0.63
2018-03-04T23:57:26.901Z,0.46
